createdAt,value
2022-10-14T00:04:14.123Z,51.30
2022-10-14T00:09:19.467Z,49.50
2022-10-14T00:14:24.744Z,48.53
2022-10-14T00:19:30.034Z,53.20
2022-10-14T00:24:35.329Z,51.60
2022-10-14T00:29:40.700Z,43.97
2022-10-14T00:34:46.082Z,49.73
2022-10-14T00:39:56.125Z,50.77
2022-10-14T00:45:01.270Z,45.03
2022-10-14T00:50:06.936Z,53.07
2022-10-14T00:55:15.640Z,44.00
2022-10-14T01:00:22.402Z,48.73
2022-10-14T01:05:30.736Z,51.73
2022-10-14T01:10:48.663Z,47.73
2022-10-14T01:16:24.051Z,41.20
2022-10-14T01:21:44.207Z,45.97
2022-10-14T01:26:58.183Z,41.60
2022-10-14T01:32:09.303Z,49.63
2022-10-14T01:37:17.607Z,43.17
2022-10-14T01:42:25.869Z,40.67
2022-10-14T01:47:33.549Z,46.67
2022-10-14T01:52:41.842Z,44.53
2022-10-14T01:57:50.587Z,44.57
2022-10-14T02:02:55.766Z,49.53
2022-10-14T02:08:11.225Z,50.80
2022-10-14T02:13:39.228Z,51.27
2022-10-14T02:18:59.384Z,51.77
2022-10-14T02:24:13.502Z,46.53
2022-10-14T02:29:20.885Z,51.30
2022-10-14T02:34:27.617Z,52.17
2022-10-14T02:39:39.296Z,48.03
2022-10-14T02:44:59.953Z,44.30
2022-10-14T02:50:05.543Z,49.20
2022-10-14T02:55:10.909Z,58.70
2022-10-14T03:00:16.696Z,48.33
2022-10-14T03:05:22.131Z,45.70
2022-10-14T03:10:27.518Z,50.23
2022-10-14T03:15:33.537Z,55.87
2022-10-14T03:20:38.795Z,47.13
2022-10-14T03:25:45.944Z,54.50
2022-10-14T03:30:51.327Z,59.13
2022-10-14T03:35:56.784Z,46.67
2022-10-14T03:41:02.118Z,60.77
2022-10-14T03:46:07.597Z,52.73
2022-10-14T03:51:13.090Z,55.10
2022-10-14T03:56:18.407Z,55.17
2022-10-14T04:01:24.417Z,56.83
2022-10-14T04:06:31.501Z,61.20
2022-10-14T04:11:36.950Z,55.33
2022-10-14T04:16:46.069Z,61.73
2022-10-14T04:21:50.431Z,57.70
2022-10-14T04:26:55.880Z,49.63
2022-10-14T04:32:01.370Z,58.57
2022-10-14T04:37:06.850Z,62.37
2022-10-14T04:42:13.498Z,56.13
2022-10-14T04:47:18.933Z,63.93
2022-10-14T04:52:24.516Z,61.73
2022-10-14T04:57:30.564Z,58.07
2022-10-14T05:02:35.995Z,62.13
2022-10-14T05:07:41.696Z,47.40
2022-10-14T05:12:47.588Z,56.47
2022-10-14T05:17:53.124Z,59.33
2022-10-14T05:22:59.649Z,60.57
2022-10-14T05:28:05.287Z,58.53
2022-10-14T05:33:11.180Z,63.80
2022-10-14T05:38:16.982Z,59.20
2022-10-14T05:43:23.458Z,60.97
2022-10-14T05:48:29.587Z,55.50
2022-10-14T05:53:39.564Z,68.57
2022-10-14T05:58:44.924Z,56.93
2022-10-14T06:03:53.839Z,56.20
2022-10-14T06:09:00.761Z,57.20
2022-10-14T06:14:06.351Z,59.40
2022-10-14T06:19:17.712Z,77.03
2022-10-14T06:24:24.562Z,55.77
2022-10-14T06:29:31.547Z,72.27
2022-10-14T06:34:37.592Z,56.77
2022-10-14T06:39:46.668Z,56.77
2022-10-14T06:44:53.593Z,97.97
2022-10-14T06:49:58.961Z,204.20
2022-10-14T06:55:04.636Z,63.27
2022-10-14T07:00:16.474Z,95.07
2022-10-14T07:05:21.923Z,62.07
2022-10-14T07:10:27.388Z,58.77
2022-10-14T07:15:35.416Z,64.53
2022-10-14T07:20:46.946Z,57.43
2022-10-14T07:25:52.293Z,59.73
2022-10-14T07:31:02.884Z,57.30
2022-10-14T07:36:11.382Z,58.67
2022-10-14T07:41:19.777Z,52.33
2022-10-14T07:46:31.603Z,56.83
2022-10-14T07:51:38.372Z,58.67
2022-10-14T07:56:45.392Z,64.10
2022-10-14T08:01:52.892Z,58.47
2022-10-14T08:06:58.630Z,56.37
2022-10-14T08:12:03.966Z,64.87
2022-10-14T08:17:09.175Z,54.60
2022-10-14T08:22:14.799Z,54.20
2022-10-14T08:27:20.292Z,58.57
2022-10-14T08:32:25.694Z,48.27
2022-10-14T08:37:30.912Z,55.13
2022-10-14T08:42:47.818Z,76.37
2022-10-14T08:47:57.321Z,54.53
2022-10-14T08:53:17.680Z,54.30
2022-10-14T09:03:37.045Z,56.73
2022-10-14T09:08:45.982Z,51.57
2022-10-14T09:14:00.347Z,52.83
2022-10-14T09:19:09.211Z,52.20
2022-10-14T09:24:23.502Z,54.93
2022-10-14T09:29:31.813Z,55.47
2022-10-14T09:34:43.536Z,52.50
2022-10-14T09:39:50.247Z,56.07
2022-10-14T09:45:11.152Z,48.23
2022-10-14T09:50:40.631Z,64.10
2022-10-14T09:55:51.888Z,64.23
2022-10-14T10:01:02.289Z,50.33
2022-10-14T10:06:14.861Z,44.50
2022-10-14T10:11:27.652Z,44.23
2022-10-14T10:16:34.953Z,52.93
2022-10-14T10:21:40.629Z,49.50
2022-10-14T10:26:47.980Z,51.43
2022-10-14T10:37:35.648Z,43.63
2022-10-14T10:42:53.179Z,47.60
2022-10-14T10:48:08.605Z,47.13
2022-10-14T10:53:38.654Z,41.00
2022-10-14T10:59:07.562Z,48.40
2022-10-14T11:04:31.351Z,42.43
2022-10-14T11:09:59.935Z,35.23
2022-10-14T11:15:23.394Z,40.00
2022-10-14T11:20:43.743Z,39.77
2022-10-14T11:26:07.108Z,37.63
2022-10-14T11:31:23.730Z,34.83
2022-10-14T11:36:34.864Z,38.60
2022-10-14T11:41:54.938Z,35.77
2022-10-14T11:47:05.658Z,32.60
2022-10-14T11:52:19.366Z,39.40
2022-10-14T11:57:36.516Z,34.07
2022-10-14T12:03:10.245Z,38.53
2022-10-14T12:08:33.276Z,37.57
2022-10-14T12:13:44.694Z,39.40
2022-10-14T12:18:56.197Z,34.00
2022-10-14T12:24:10.191Z,36.93
2022-10-14T12:29:22.557Z,34.17
2022-10-14T12:34:40.217Z,38.93
2022-10-14T12:39:45.786Z,30.03
2022-10-14T12:45:01.897Z,32.87
2022-10-14T13:06:32.147Z,29.63
2022-10-14T13:11:55.799Z,31.70
2022-10-14T13:17:36.148Z,32.43
2022-10-14T13:23:31.466Z,28.73
2022-10-14T13:39:47.763Z,30.80
2022-10-14T13:45:19.032Z,40.33
2022-10-14T13:50:34.860Z,29.77
2022-10-14T13:55:58.126Z,39.47
2022-10-14T14:01:20.794Z,31.70
2022-10-14T14:07:06.756Z,43.63
2022-10-14T14:12:11.871Z,33.27
2022-10-14T14:23:24.688Z,28.10
2022-10-14T14:28:37.402Z,34.73
2022-10-14T14:33:53.522Z,26.23
2022-10-14T14:39:01.827Z,28.10
2022-10-14T14:44:24.505Z,28.20
2022-10-14T14:49:24.397Z,25.77
2022-10-14T14:54:39.601Z,27.63
2022-10-14T15:00:06.486Z,39.53
2022-10-14T15:05:44.734Z,33.57
2022-10-14T15:10:38.015Z,34.27
2022-10-14T15:15:59.916Z,30.43
2022-10-14T15:27:26.170Z,38.50
2022-10-14T15:32:50.932Z,49.47
2022-10-14T15:38:02.572Z,47.37
2022-10-14T15:43:17.680Z,42.67
2022-10-14T15:48:23.512Z,42.07
2022-10-14T15:53:30.315Z,37.90
2022-10-14T15:58:35.611Z,39.60
2022-10-14T16:04:00.566Z,41.47
2022-10-14T16:09:06.036Z,44.00
2022-10-14T16:14:13.390Z,41.40
2022-10-14T16:19:18.934Z,37.70
2022-10-14T16:24:26.073Z,38.20
2022-10-14T16:29:31.471Z,33.80
2022-10-14T16:34:36.711Z,50.47
2022-10-14T16:39:43.635Z,67.77
2022-10-14T16:44:48.936Z,45.47
2022-10-14T16:49:55.153Z,46.67
2022-10-14T16:55:00.507Z,34.23
2022-10-14T17:00:06.472Z,55.00
2022-10-14T17:05:11.989Z,52.43
2022-10-14T17:10:17.378Z,64.20
2022-10-14T17:15:23.064Z,48.30
2022-10-14T17:20:28.821Z,55.37
2022-10-14T17:25:34.038Z,43.30
2022-10-14T17:30:39.496Z,41.73
2022-10-14T17:35:46.418Z,38.27
2022-10-14T17:40:51.823Z,43.43
2022-10-14T17:46:10.576Z,64.97
2022-10-14T17:51:16.589Z,50.13
2022-10-14T17:56:25.569Z,44.77
2022-10-14T18:01:37.744Z,44.13
2022-10-14T18:06:39.959Z,46.70
2022-10-14T18:16:52.856Z,54.03
2022-10-14T18:21:58.289Z,79.43
2022-10-14T18:27:07.025Z,66.40
2022-10-14T18:32:12.558Z,67.13
2022-10-14T18:37:18.065Z,60.07
2022-10-14T18:42:23.954Z,60.97
2022-10-14T18:47:32.946Z,53.80
2022-10-14T18:52:38.600Z,55.60
2022-10-14T18:57:43.984Z,51.10
2022-10-14T19:02:49.519Z,55.03
2022-10-14T19:07:57.528Z,76.80
2022-10-14T19:13:04.500Z,64.50
2022-10-14T19:18:10.620Z,60.47
2022-10-14T19:23:17.248Z,64.90
2022-10-14T19:28:23.485Z,57.87
2022-10-14T19:33:30.327Z,64.80
2022-10-14T19:38:44.572Z,60.20
2022-10-14T19:43:53.703Z,58.47
2022-10-14T19:49:07.910Z,57.83
2022-10-14T19:54:17.512Z,56.20
2022-10-14T19:59:24.422Z,65.43
2022-10-14T20:04:49.285Z,57.77
2022-10-14T20:09:58.109Z,44.63
2022-10-14T20:15:03.886Z,59.00
2022-10-14T20:20:09.641Z,58.37
2022-10-14T20:25:16.206Z,56.53
2022-10-14T20:30:25.888Z,54.20
2022-10-14T20:35:33.215Z,64.27
2022-10-14T20:40:44.067Z,60.17
2022-10-14T20:45:56.234Z,59.00
2022-10-14T20:51:05.179Z,57.90
2022-10-14T20:56:15.855Z,61.10
2022-10-14T21:01:40.577Z,65.93
2022-10-14T21:06:46.007Z,76.90
2022-10-14T21:11:56.953Z,56.50
2022-10-14T21:17:04.696Z,81.50
2022-10-14T21:22:29.472Z,146.27
2022-10-14T21:27:39.387Z,99.57
2022-10-14T21:38:42.069Z,68.37
2022-10-14T21:43:50.386Z,61.27
2022-10-14T21:49:02.308Z,65.47
2022-10-14T21:54:10.093Z,68.50
2022-10-14T21:59:23.268Z,69.87
2022-10-14T22:04:34.601Z,83.17
2022-10-14T22:09:46.159Z,82.23
2022-10-14T22:14:54.990Z,102.70
2022-10-14T22:20:07.365Z,93.53
2022-10-14T22:25:15.315Z,77.87
2022-10-14T22:30:21.524Z,82.87
2022-10-14T22:35:30.949Z,84.13
2022-10-14T22:40:36.384Z,75.57
2022-10-14T22:45:41.559Z,64.10
2022-10-14T22:56:21.123Z,69.57
2022-10-14T23:01:31.555Z,72.47
2022-10-14T23:06:45.486Z,78.33
2022-10-14T23:12:03.936Z,66.33
2022-10-14T23:17:09.143Z,75.73
2022-10-14T23:27:52.894Z,79.57
2022-10-14T23:33:05.333Z,77.43
2022-10-14T23:38:18.403Z,78.40
2022-10-14T23:43:42.371Z,74.30
2022-10-14T23:48:55.641Z,80.50
2022-10-14T23:54:08.909Z,71.00
2022-10-14T23:59:10.144Z,83.17
